sensor_id;sensor_type;location;lat;lon;timestamp;P1;durP1;ratioP1;P2;durP2;ratioP2
21507;SDS011;10915;54.352;9.074;2022-07-18T00:00:04;4.47;;;2.60;;
21507;SDS011;10915;54.352;9.074;2022-07-18T00:02:31;3.10;;;2.47;;
21507;SDS011;10915;54.352;9.074;2022-07-18T00:04:57;3.50;;;2.53;;
21507;SDS011;10915;54.352;9.074;2022-07-18T00:07:23;4.43;;;3.00;;
21507;SDS011;10915;54.352;9.074;2022-07-18T00:09:49;6.17;;;2.73;;
21507;SDS011;10915;54.352;9.074;2022-07-18T00:12:14;9.40;;;2.90;;
21507;SDS011;10915;54.352;9.074;2022-07-18T00:14:41;6.57;;;2.83;;
21507;SDS011;10915;54.352;9.074;2022-07-18T00:17:07;8.00;;;3.00;;
21507;SDS011;10915;54.352;9.074;2022-07-18T00:19:33;4.50;;;2.80;;
21507;SDS011;10915;54.352;9.074;2022-07-18T00:21:59;5.60;;;2.67;;
21507;SDS011;10915;54.352;9.074;2022-07-18T00:24:26;6.03;;;3.10;;
21507;SDS011;10915;54.352;9.074;2022-07-18T00:26:52;6.97;;;2.90;;
21507;SDS011;10915;54.352;9.074;2022-07-18T00:29:17;8.97;;;3.57;;
21507;SDS011;10915;54.352;9.074;2022-07-18T00:31:43;5.00;;;2.87;;
21507;SDS011;10915;54.352;9.074;2022-07-18T00:34:09;5.10;;;3.00;;
21507;SDS011;10915;54.352;9.074;2022-07-18T00:36:34;4.77;;;2.83;;
21507;SDS011;10915;54.352;9.074;2022-07-18T00:39:00;4.43;;;3.10;;
21507;SDS011;10915;54.352;9.074;2022-07-18T00:41:26;5.23;;;3.00;;
21507;SDS011;10915;54.352;9.074;2022-07-18T00:43:52;7.03;;;3.03;;
21507;SDS011;10915;54.352;9.074;2022-07-18T00:46:24;7.07;;;3.20;;
21507;SDS011;10915;54.352;9.074;2022-07-18T00:48:51;6.00;;;3.03;;
21507;SDS011;10915;54.352;9.074;2022-07-18T00:51:17;5.20;;;3.00;;
21507;SDS011;10915;54.352;9.074;2022-07-18T00:53:44;6.73;;;3.07;;
21507;SDS011;10915;54.352;9.074;2022-07-18T00:56:12;4.43;;;3.07;;
21507;SDS011;10915;54.352;9.074;2022-07-18T00:58:38;4.97;;;3.17;;
21507;SDS011;10915;54.352;9.074;2022-07-18T01:01:04;8.30;;;3.20;;
21507;SDS011;10915;54.352;9.074;2022-07-18T01:03:48;6.67;;;3.40;;
21507;SDS011;10915;54.352;9.074;2022-07-18T01:06:14;4.33;;;2.77;;
21507;SDS011;10915;54.352;9.074;2022-07-18T01:08:41;9.43;;;3.27;;
21507;SDS011;10915;54.352;9.074;2022-07-18T01:11:08;6.20;;;3.30;;
21507;SDS011;10915;54.352;9.074;2022-07-18T01:13:34;5.93;;;3.17;;
21507;SDS011;10915;54.352;9.074;2022-07-18T01:16:00;3.73;;;2.70;;
21507;SDS011;10915;54.352;9.074;2022-07-18T01:18:26;4.83;;;2.77;;
21507;SDS011;10915;54.352;9.074;2022-07-18T01:20:52;4.90;;;2.70;;
21507;SDS011;10915;54.352;9.074;2022-07-18T01:23:18;5.17;;;3.27;;
21507;SDS011;10915;54.352;9.074;2022-07-18T01:25:43;6.43;;;2.93;;
21507;SDS011;10915;54.352;9.074;2022-07-18T01:28:09;5.10;;;3.00;;
21507;SDS011;10915;54.352;9.074;2022-07-18T01:30:35;5.20;;;2.67;;
21507;SDS011;10915;54.352;9.074;2022-07-18T01:33:01;4.43;;;2.60;;
21507;SDS011;10915;54.352;9.074;2022-07-18T01:35:28;6.30;;;3.47;;
21507;SDS011;10915;54.352;9.074;2022-07-18T01:37:55;5.50;;;3.00;;
21507;SDS011;10915;54.352;9.074;2022-07-18T01:40:22;6.90;;;3.60;;
21507;SDS011;10915;54.352;9.074;2022-07-18T01:42:48;4.40;;;2.90;;
21507;SDS011;10915;54.352;9.074;2022-07-18T01:45:16;6.50;;;3.50;;
21507;SDS011;10915;54.352;9.074;2022-07-18T01:47:42;4.30;;;3.27;;
21507;SDS011;10915;54.352;9.074;2022-07-18T01:50:09;4.73;;;2.90;;
21507;SDS011;10915;54.352;9.074;2022-07-18T01:52:35;5.30;;;3.23;;
21507;SDS011;10915;54.352;9.074;2022-07-18T01:55:02;5.20;;;3.20;;
21507;SDS011;10915;54.352;9.074;2022-07-18T01:57:30;6.43;;;3.03;;
21507;SDS011;10915;54.352;9.074;2022-07-18T01:59:55;5.83;;;3.03;;
21507;SDS011;10915;54.352;9.074;2022-07-18T02:02:21;3.70;;;2.83;;
21507;SDS011;10915;54.352;9.074;2022-07-18T02:04:46;6.27;;;3.17;;
21507;SDS011;10915;54.352;9.074;2022-07-18T02:07:25;3.53;;;2.73;;
21507;SDS011;10915;54.352;9.074;2022-07-18T02:10:12;4.93;;;2.90;;
21507;SDS011;10915;54.352;9.074;2022-07-18T02:12:40;4.83;;;3.27;;
21507;SDS011;10915;54.352;9.074;2022-07-18T02:15:07;7.33;;;3.63;;
21507;SDS011;10915;54.352;9.074;2022-07-18T02:17:34;5.77;;;3.20;;
21507;SDS011;10915;54.352;9.074;2022-07-18T02:20:00;4.83;;;2.87;;
21507;SDS011;10915;54.352;9.074;2022-07-18T02:22:25;6.80;;;3.30;;
21507;SDS011;10915;54.352;9.074;2022-07-18T02:24:52;4.73;;;2.87;;
21507;SDS011;10915;54.352;9.074;2022-07-18T02:27:18;4.33;;;2.97;;
21507;SDS011;10915;54.352;9.074;2022-07-18T02:29:44;7.30;;;3.40;;
21507;SDS011;10915;54.352;9.074;2022-07-18T02:32:11;7.97;;;3.13;;
21507;SDS011;10915;54.352;9.074;2022-07-18T02:34:36;6.50;;;3.20;;
21507;SDS011;10915;54.352;9.074;2022-07-18T02:37:02;4.87;;;3.13;;
21507;SDS011;10915;54.352;9.074;2022-07-18T02:39:28;4.50;;;3.27;;
21507;SDS011;10915;54.352;9.074;2022-07-18T02:41:54;4.63;;;3.33;;
21507;SDS011;10915;54.352;9.074;2022-07-18T02:44:20;5.20;;;3.53;;
21507;SDS011;10915;54.352;9.074;2022-07-18T02:46:46;4.80;;;3.30;;
21507;SDS011;10915;54.352;9.074;2022-07-18T02:49:12;6.93;;;3.30;;
21507;SDS011;10915;54.352;9.074;2022-07-18T02:51:52;4.37;;;3.10;;
21507;SDS011;10915;54.352;9.074;2022-07-18T02:54:19;6.37;;;3.13;;
21507;SDS011;10915;54.352;9.074;2022-07-18T02:56:45;7.93;;;3.47;;
21507;SDS011;10915;54.352;9.074;2022-07-18T02:59:11;6.67;;;3.33;;
21507;SDS011;10915;54.352;9.074;2022-07-18T03:01:36;5.23;;;3.40;;
21507;SDS011;10915;54.352;9.074;2022-07-18T03:04:02;7.73;;;3.90;;
21507;SDS011;10915;54.352;9.074;2022-07-18T03:06:27;5.47;;;3.30;;
21507;SDS011;10915;54.352;9.074;2022-07-18T03:08:53;12.03;;;3.60;;
21507;SDS011;10915;54.352;9.074;2022-07-18T03:11:19;8.67;;;4.30;;
21507;SDS011;10915;54.352;9.074;2022-07-18T03:13:45;5.60;;;3.63;;
21507;SDS011;10915;54.352;9.074;2022-07-18T03:16:10;6.60;;;3.60;;
21507;SDS011;10915;54.352;9.074;2022-07-18T03:18:36;6.77;;;3.57;;
21507;SDS011;10915;54.352;9.074;2022-07-18T03:21:03;7.30;;;4.00;;
21507;SDS011;10915;54.352;9.074;2022-07-18T03:23:28;9.73;;;3.77;;
21507;SDS011;10915;54.352;9.074;2022-07-18T03:25:54;7.73;;;3.90;;
21507;SDS011;10915;54.352;9.074;2022-07-18T03:28:19;10.63;;;3.97;;
21507;SDS011;10915;54.352;9.074;2022-07-18T03:30:45;6.50;;;4.10;;
21507;SDS011;10915;54.352;9.074;2022-07-18T03:33:11;7.83;;;3.83;;
21507;SDS011;10915;54.352;9.074;2022-07-18T03:35:36;9.67;;;4.30;;
21507;SDS011;10915;54.352;9.074;2022-07-18T03:38:02;8.90;;;4.50;;
21507;SDS011;10915;54.352;9.074;2022-07-18T03:40:28;11.67;;;5.03;;
21507;SDS011;10915;54.352;9.074;2022-07-18T03:42:53;7.93;;;4.30;;
21507;SDS011;10915;54.352;9.074;2022-07-18T03:45:19;6.97;;;3.97;;
21507;SDS011;10915;54.352;9.074;2022-07-18T03:47:45;8.03;;;4.60;;
21507;SDS011;10915;54.352;9.074;2022-07-18T03:50:10;6.90;;;4.10;;
21507;SDS011;10915;54.352;9.074;2022-07-18T03:52:36;8.43;;;4.10;;
21507;SDS011;10915;54.352;9.074;2022-07-18T03:55:02;6.63;;;3.93;;
21507;SDS011;10915;54.352;9.074;2022-07-18T03:57:28;7.57;;;4.23;;
21507;SDS011;10915;54.352;9.074;2022-07-18T03:59:53;6.27;;;3.60;;
21507;SDS011;10915;54.352;9.074;2022-07-18T04:02:19;6.50;;;4.00;;
21507;SDS011;10915;54.352;9.074;2022-07-18T04:04:45;9.43;;;4.00;;
21507;SDS011;10915;54.352;9.074;2022-07-18T04:07:10;7.70;;;4.30;;
21507;SDS011;10915;54.352;9.074;2022-07-18T04:09:36;9.20;;;4.17;;
21507;SDS011;10915;54.352;9.074;2022-07-18T04:12:02;8.40;;;4.03;;
21507;SDS011;10915;54.352;9.074;2022-07-18T04:14:28;6.63;;;4.00;;
21507;SDS011;10915;54.352;9.074;2022-07-18T04:16:53;6.03;;;4.00;;
21507;SDS011;10915;54.352;9.074;2022-07-18T04:19:19;10.00;;;3.43;;
21507;SDS011;10915;54.352;9.074;2022-07-18T04:21:45;6.40;;;3.80;;
21507;SDS011;10915;54.352;9.074;2022-07-18T04:24:11;5.30;;;3.83;;
21507;SDS011;10915;54.352;9.074;2022-07-18T04:26:37;5.07;;;3.27;;
21507;SDS011;10915;54.352;9.074;2022-07-18T04:29:03;6.10;;;3.50;;
21507;SDS011;10915;54.352;9.074;2022-07-18T04:31:29;5.77;;;3.10;;
21507;SDS011;10915;54.352;9.074;2022-07-18T04:33:54;5.97;;;3.10;;
21507;SDS011;10915;54.352;9.074;2022-07-18T04:36:20;7.23;;;3.70;;
21507;SDS011;10915;54.352;9.074;2022-07-18T04:38:46;6.47;;;3.77;;
21507;SDS011;10915;54.352;9.074;2022-07-18T04:41:11;6.87;;;3.80;;
21507;SDS011;10915;54.352;9.074;2022-07-18T04:43:37;7.00;;;3.20;;
21507;SDS011;10915;54.352;9.074;2022-07-18T04:46:02;4.63;;;3.33;;
21507;SDS011;10915;54.352;9.074;2022-07-18T04:48:28;6.63;;;2.90;;
21507;SDS011;10915;54.352;9.074;2022-07-18T04:50:54;4.37;;;3.10;;
21507;SDS011;10915;54.352;9.074;2022-07-18T04:53:20;6.10;;;3.30;;
21507;SDS011;10915;54.352;9.074;2022-07-18T04:55:45;4.43;;;2.80;;
21507;SDS011;10915;54.352;9.074;2022-07-18T04:58:11;6.07;;;2.97;;
21507;SDS011;10915;54.352;9.074;2022-07-18T05:00:37;6.77;;;3.40;;
21507;SDS011;10915;54.352;9.074;2022-07-18T05:03:02;4.90;;;3.00;;
21507;SDS011;10915;54.352;9.074;2022-07-18T05:05:28;4.70;;;3.47;;
21507;SDS011;10915;54.352;9.074;2022-07-18T05:07:54;7.20;;;4.20;;
21507;SDS011;10915;54.352;9.074;2022-07-18T05:10:21;5.57;;;3.90;;
21507;SDS011;10915;54.352;9.074;2022-07-18T05:12:49;6.80;;;3.73;;
21507;SDS011;10915;54.352;9.074;2022-07-18T05:15:17;4.70;;;3.33;;
21507;SDS011;10915;54.352;9.074;2022-07-18T05:17:44;5.37;;;3.70;;
21507;SDS011;10915;54.352;9.074;2022-07-18T05:20:10;4.27;;;3.23;;
21507;SDS011;10915;54.352;9.074;2022-07-18T05:22:38;9.40;;;3.80;;
21507;SDS011;10915;54.352;9.074;2022-07-18T05:25:04;9.53;;;3.97;;
21507;SDS011;10915;54.352;9.074;2022-07-18T05:27:31;7.50;;;4.00;;
21507;SDS011;10915;54.352;9.074;2022-07-18T05:29:57;5.53;;;3.93;;
21507;SDS011;10915;54.352;9.074;2022-07-18T05:32:24;6.87;;;3.80;;
21507;SDS011;10915;54.352;9.074;2022-07-18T05:34:50;7.23;;;4.07;;
21507;SDS011;10915;54.352;9.074;2022-07-18T05:37:16;8.50;;;3.80;;
21507;SDS011;10915;54.352;9.074;2022-07-18T05:39:41;7.60;;;3.77;;
21507;SDS011;10915;54.352;9.074;2022-07-18T05:42:07;6.03;;;4.00;;
21507;SDS011;10915;54.352;9.074;2022-07-18T05:44:33;10.03;;;3.70;;
21507;SDS011;10915;54.352;9.074;2022-07-18T05:46:59;6.00;;;3.73;;
21507;SDS011;10915;54.352;9.074;2022-07-18T05:49:24;5.33;;;3.03;;
21507;SDS011;10915;54.352;9.074;2022-07-18T05:51:50;5.23;;;2.90;;
21507;SDS011;10915;54.352;9.074;2022-07-18T05:54:16;5.63;;;3.60;;
21507;SDS011;10915;54.352;9.074;2022-07-18T05:56:47;6.23;;;3.80;;
21507;SDS011;10915;54.352;9.074;2022-07-18T05:59:14;5.47;;;3.20;;
21507;SDS011;10915;54.352;9.074;2022-07-18T06:01:41;8.93;;;3.83;;
21507;SDS011;10915;54.352;9.074;2022-07-18T06:04:06;4.80;;;3.00;;
21507;SDS011;10915;54.352;9.074;2022-07-18T06:06:32;8.00;;;3.23;;
21507;SDS011;10915;54.352;9.074;2022-07-18T06:08:58;8.23;;;3.27;;
21507;SDS011;10915;54.352;9.074;2022-07-18T06:11:23;8.60;;;3.80;;
21507;SDS011;10915;54.352;9.074;2022-07-18T06:13:49;5.67;;;3.17;;
21507;SDS011;10915;54.352;9.074;2022-07-18T06:16:15;7.33;;;3.13;;
21507;SDS011;10915;54.352;9.074;2022-07-18T06:18:40;5.93;;;3.43;;
21507;SDS011;10915;54.352;9.074;2022-07-18T06:21:06;5.60;;;3.20;;
21507;SDS011;10915;54.352;9.074;2022-07-18T06:23:32;5.63;;;2.87;;
21507;SDS011;10915;54.352;9.074;2022-07-18T06:25:58;5.03;;;2.90;;
21507;SDS011;10915;54.352;9.074;2022-07-18T06:28:24;6.40;;;3.10;;
21507;SDS011;10915;54.352;9.074;2022-07-18T06:30:50;7.40;;;3.47;;
21507;SDS011;10915;54.352;9.074;2022-07-18T06:33:16;5.77;;;3.03;;
21507;SDS011;10915;54.352;9.074;2022-07-18T06:35:42;6.10;;;3.17;;
21507;SDS011;10915;54.352;9.074;2022-07-18T06:38:08;6.47;;;3.20;;
21507;SDS011;10915;54.352;9.074;2022-07-18T06:40:33;6.57;;;3.33;;
21507;SDS011;10915;54.352;9.074;2022-07-18T06:42:59;5.23;;;2.73;;
21507;SDS011;10915;54.352;9.074;2022-07-18T06:45:25;9.20;;;3.53;;
21507;SDS011;10915;54.352;9.074;2022-07-18T06:47:50;9.50;;;4.13;;
21507;SDS011;10915;54.352;9.074;2022-07-18T06:50:16;8.30;;;3.60;;
21507;SDS011;10915;54.352;9.074;2022-07-18T06:52:42;5.47;;;3.10;;
21507;SDS011;10915;54.352;9.074;2022-07-18T06:55:09;6.20;;;3.20;;
21507;SDS011;10915;54.352;9.074;2022-07-18T06:57:36;9.57;;;3.50;;
21507;SDS011;10915;54.352;9.074;2022-07-18T07:00:03;9.77;;;3.87;;
21507;SDS011;10915;54.352;9.074;2022-07-18T07:02:30;6.43;;;3.67;;
21507;SDS011;10915;54.352;9.074;2022-07-18T07:04:55;6.57;;;3.53;;
21507;SDS011;10915;54.352;9.074;2022-07-18T07:07:21;5.73;;;3.17;;
21507;SDS011;10915;54.352;9.074;2022-07-18T07:09:47;6.13;;;3.40;;
21507;SDS011;10915;54.352;9.074;2022-07-18T07:12:12;9.20;;;3.33;;
21507;SDS011;10915;54.352;9.074;2022-07-18T07:14:38;6.73;;;3.20;;
21507;SDS011;10915;54.352;9.074;2022-07-18T07:17:04;4.17;;;2.87;;
21507;SDS011;10915;54.352;9.074;2022-07-18T07:19:30;8.17;;;2.70;;
21507;SDS011;10915;54.352;9.074;2022-07-18T07:21:56;7.47;;;3.03;;
21507;SDS011;10915;54.352;9.074;2022-07-18T07:24:21;6.93;;;3.33;;
21507;SDS011;10915;54.352;9.074;2022-07-18T07:26:47;7.17;;;2.90;;
21507;SDS011;10915;54.352;9.074;2022-07-18T07:29:13;8.17;;;2.83;;
21507;SDS011;10915;54.352;9.074;2022-07-18T07:31:40;5.37;;;2.90;;
21507;SDS011;10915;54.352;9.074;2022-07-18T07:34:06;5.67;;;2.50;;
21507;SDS011;10915;54.352;9.074;2022-07-18T07:36:32;5.80;;;2.63;;
21507;SDS011;10915;54.352;9.074;2022-07-18T07:38:57;6.00;;;2.70;;
21507;SDS011;10915;54.352;9.074;2022-07-18T07:41:23;5.40;;;2.73;;
21507;SDS011;10915;54.352;9.074;2022-07-18T07:43:49;3.23;;;1.93;;
21507;SDS011;10915;54.352;9.074;2022-07-18T07:46:14;5.90;;;2.90;;
21507;SDS011;10915;54.352;9.074;2022-07-18T07:48:40;6.97;;;2.80;;
21507;SDS011;10915;54.352;9.074;2022-07-18T07:51:05;6.00;;;2.73;;
21507;SDS011;10915;54.352;9.074;2022-07-18T07:53:31;7.83;;;3.33;;
21507;SDS011;10915;54.352;9.074;2022-07-18T07:55:57;4.73;;;2.60;;
21507;SDS011;10915;54.352;9.074;2022-07-18T07:58:23;6.63;;;2.53;;
21507;SDS011;10915;54.352;9.074;2022-07-18T08:00:48;4.57;;;2.07;;
21507;SDS011;10915;54.352;9.074;2022-07-18T08:03:14;6.43;;;2.73;;
21507;SDS011;10915;54.352;9.074;2022-07-18T08:05:46;6.00;;;2.73;;
21507;SDS011;10915;54.352;9.074;2022-07-18T08:08:13;5.57;;;2.43;;
21507;SDS011;10915;54.352;9.074;2022-07-18T08:10:39;7.07;;;1.83;;
21507;SDS011;10915;54.352;9.074;2022-07-18T08:13:05;5.50;;;2.40;;
21507;SDS011;10915;54.352;9.074;2022-07-18T08:15:31;3.53;;;2.10;;
21507;SDS011;10915;54.352;9.074;2022-07-18T08:17:57;7.30;;;1.90;;
21507;SDS011;10915;54.352;9.074;2022-07-18T08:20:23;4.60;;;2.03;;
21507;SDS011;10915;54.352;9.074;2022-07-18T08:22:56;6.30;;;2.23;;
21507;SDS011;10915;54.352;9.074;2022-07-18T08:25:24;4.30;;;2.00;;
21507;SDS011;10915;54.352;9.074;2022-07-18T08:27:50;6.03;;;2.57;;
21507;SDS011;10915;54.352;9.074;2022-07-18T08:30:16;5.57;;;2.17;;
21507;SDS011;10915;54.352;9.074;2022-07-18T08:32:42;6.00;;;2.97;;
21507;SDS011;10915;54.352;9.074;2022-07-18T08:35:09;6.70;;;3.27;;
21507;SDS011;10915;54.352;9.074;2022-07-18T08:37:35;6.40;;;2.37;;
21507;SDS011;10915;54.352;9.074;2022-07-18T08:40:00;7.43;;;2.60;;
21507;SDS011;10915;54.352;9.074;2022-07-18T08:42:26;5.27;;;1.90;;
21507;SDS011;10915;54.352;9.074;2022-07-18T08:44:52;7.80;;;2.60;;
21507;SDS011;10915;54.352;9.074;2022-07-18T08:47:20;5.53;;;2.20;;
21507;SDS011;10915;54.352;9.074;2022-07-18T08:49:47;7.63;;;2.30;;
21507;SDS011;10915;54.352;9.074;2022-07-18T08:52:13;4.73;;;2.07;;
21507;SDS011;10915;54.352;9.074;2022-07-18T08:54:39;5.70;;;2.37;;
21507;SDS011;10915;54.352;9.074;2022-07-18T08:57:05;6.13;;;2.60;;
21507;SDS011;10915;54.352;9.074;2022-07-18T08:59:31;4.93;;;1.90;;
21507;SDS011;10915;54.352;9.074;2022-07-18T09:01:56;3.70;;;2.30;;
21507;SDS011;10915;54.352;9.074;2022-07-18T09:04:38;6.97;;;1.70;;
21507;SDS011;10915;54.352;9.074;2022-07-18T09:07:05;5.60;;;2.40;;
21507;SDS011;10915;54.352;9.074;2022-07-18T09:09:33;8.00;;;2.33;;
21507;SDS011;10915;54.352;9.074;2022-07-18T09:12:07;5.40;;;2.30;;
21507;SDS011;10915;54.352;9.074;2022-07-18T09:14:37;7.00;;;2.30;;
21507;SDS011;10915;54.352;9.074;2022-07-18T09:17:06;8.10;;;2.07;;
21507;SDS011;10915;54.352;9.074;2022-07-18T09:19:36;6.20;;;2.30;;
21507;SDS011;10915;54.352;9.074;2022-07-18T09:22:10;4.90;;;2.30;;
21507;SDS011;10915;54.352;9.074;2022-07-18T09:24:51;4.73;;;2.40;;
21507;SDS011;10915;54.352;9.074;2022-07-18T09:32:53;5.70;;;2.60;;
21507;SDS011;10915;54.352;9.074;2022-07-18T09:35:28;6.80;;;2.70;;
21507;SDS011;10915;54.352;9.074;2022-07-18T09:40:30;3.47;;;2.13;;
21507;SDS011;10915;54.352;9.074;2022-07-18T09:43:01;7.83;;;3.63;;
21507;SDS011;10915;54.352;9.074;2022-07-18T09:45:30;27.23;;;19.90;;
21507;SDS011;10915;54.352;9.074;2022-07-18T09:47:58;13.73;;;9.20;;
21507;SDS011;10915;54.352;9.074;2022-07-18T09:50:33;7.90;;;4.27;;
21507;SDS011;10915;54.352;9.074;2022-07-18T09:53:07;5.33;;;3.23;;
21507;SDS011;10915;54.352;9.074;2022-07-18T09:55:35;9.17;;;3.53;;
21507;SDS011;10915;54.352;9.074;2022-07-18T09:58:18;5.67;;;2.90;;
21507;SDS011;10915;54.352;9.074;2022-07-18T10:00:48;5.03;;;2.50;;
21507;SDS011;10915;54.352;9.074;2022-07-18T10:03:15;7.53;;;2.53;;
21507;SDS011;10915;54.352;9.074;2022-07-18T10:05:42;6.53;;;2.67;;
21507;SDS011;10915;54.352;9.074;2022-07-18T10:08:10;4.90;;;2.53;;
21507;SDS011;10915;54.352;9.074;2022-07-18T10:10:37;3.57;;;1.97;;
21507;SDS011;10915;54.352;9.074;2022-07-18T10:13:05;6.47;;;2.10;;
21507;SDS011;10915;54.352;9.074;2022-07-18T10:15:33;4.53;;;2.57;;
21507;SDS011;10915;54.352;9.074;2022-07-18T10:18:00;4.93;;;2.33;;
21507;SDS011;10915;54.352;9.074;2022-07-18T10:20:29;5.27;;;2.43;;
21507;SDS011;10915;54.352;9.074;2022-07-18T10:23:45;6.13;;;2.10;;
21507;SDS011;10915;54.352;9.074;2022-07-18T10:31:27;5.80;;;2.80;;
21507;SDS011;10915;54.352;9.074;2022-07-18T10:34:26;4.93;;;2.13;;
21507;SDS011;10915;54.352;9.074;2022-07-18T10:39:34;6.33;;;2.03;;
21507;SDS011;10915;54.352;9.074;2022-07-18T10:57:32;5.17;;;3.00;;
21507;SDS011;10915;54.352;9.074;2022-07-18T11:02:40;3.97;;;2.50;;
21507;SDS011;10915;54.352;9.074;2022-07-18T11:15:58;3.80;;;2.33;;
21507;SDS011;10915;54.352;9.074;2022-07-18T11:18:30;4.67;;;2.73;;
21507;SDS011;10915;54.352;9.074;2022-07-18T11:20:57;5.33;;;2.60;;
21507;SDS011;10915;54.352;9.074;2022-07-18T11:23:27;5.70;;;2.17;;
21507;SDS011;10915;54.352;9.074;2022-07-18T11:25:54;5.47;;;2.33;;
21507;SDS011;10915;54.352;9.074;2022-07-18T11:28:21;4.53;;;2.23;;
21507;SDS011;10915;54.352;9.074;2022-07-18T11:33:37;6.40;;;2.47;;
21507;SDS011;10915;54.352;9.074;2022-07-18T11:38:37;5.27;;;1.97;;
21507;SDS011;10915;54.352;9.074;2022-07-18T11:41:10;2.67;;;1.63;;
21507;SDS011;10915;54.352;9.074;2022-07-18T11:43:35;3.97;;;1.93;;
21507;SDS011;10915;54.352;9.074;2022-07-18T11:46:06;5.20;;;1.90;;
21507;SDS011;10915;54.352;9.074;2022-07-18T11:48:34;3.63;;;1.90;;
21507;SDS011;10915;54.352;9.074;2022-07-18T11:51:01;3.83;;;1.63;;
21507;SDS011;10915;54.352;9.074;2022-07-18T11:53:27;4.37;;;1.60;;
21507;SDS011;10915;54.352;9.074;2022-07-18T11:55:54;4.03;;;1.47;;
21507;SDS011;10915;54.352;9.074;2022-07-18T11:58:20;2.23;;;1.30;;
21507;SDS011;10915;54.352;9.074;2022-07-18T12:00:47;4.73;;;1.67;;
21507;SDS011;10915;54.352;9.074;2022-07-18T12:03:14;3.67;;;1.67;;
21507;SDS011;10915;54.352;9.074;2022-07-18T12:08:26;3.50;;;1.77;;
21507;SDS011;10915;54.352;9.074;2022-07-18T12:13:38;4.30;;;1.40;;
21507;SDS011;10915;54.352;9.074;2022-07-18T12:21:43;4.47;;;1.40;;
21507;SDS011;10915;54.352;9.074;2022-07-18T12:24:33;2.80;;;1.53;;
21507;SDS011;10915;54.352;9.074;2022-07-18T12:37:57;4.90;;;1.40;;
21507;SDS011;10915;54.352;9.074;2022-07-18T12:40:24;5.50;;;1.30;;
21507;SDS011;10915;54.352;9.074;2022-07-18T12:43:01;4.37;;;1.63;;
21507;SDS011;10915;54.352;9.074;2022-07-18T12:45:29;5.20;;;1.60;;
21507;SDS011;10915;54.352;9.074;2022-07-18T12:47:54;2.83;;;1.20;;
21507;SDS011;10915;54.352;9.074;2022-07-18T12:50:20;4.43;;;1.33;;
21507;SDS011;10915;54.352;9.074;2022-07-18T12:52:45;2.53;;;1.37;;
21507;SDS011;10915;54.352;9.074;2022-07-18T12:55:11;2.10;;;1.20;;
21507;SDS011;10915;54.352;9.074;2022-07-18T12:57:37;2.90;;;1.10;;
21507;SDS011;10915;54.352;9.074;2022-07-18T13:00:03;2.23;;;1.30;;
21507;SDS011;10915;54.352;9.074;2022-07-18T13:02:29;5.43;;;1.70;;
21507;SDS011;10915;54.352;9.074;2022-07-18T13:04:55;4.23;;;1.30;;
21507;SDS011;10915;54.352;9.074;2022-07-18T13:07:20;4.10;;;1.23;;
21507;SDS011;10915;54.352;9.074;2022-07-18T13:09:46;3.77;;;1.37;;
21507;SDS011;10915;54.352;9.074;2022-07-18T13:12:12;2.87;;;1.20;;
21507;SDS011;10915;54.352;9.074;2022-07-18T13:14:37;2.85;;;1.38;;
21507;SDS011;10915;54.352;9.074;2022-07-18T13:17:03;4.47;;;1.43;;
21507;SDS011;10915;54.352;9.074;2022-07-18T13:19:29;7.27;;;1.33;;
21507;SDS011;10915;54.352;9.074;2022-07-18T13:21:56;3.13;;;1.20;;
21507;SDS011;10915;54.352;9.074;2022-07-18T13:24:22;3.63;;;0.85;;
21507;SDS011;10915;54.352;9.074;2022-07-18T13:26:48;4.13;;;1.55;;
21507;SDS011;10915;54.352;9.074;2022-07-18T13:29:14;3.05;;;1.40;;
21507;SDS011;10915;54.352;9.074;2022-07-18T13:31:40;4.18;;;1.52;;
21507;SDS011;10915;54.352;9.074;2022-07-18T13:34:06;4.70;;;1.40;;
21507;SDS011;10915;54.352;9.074;2022-07-18T13:36:31;2.55;;;1.20;;
21507;SDS011;10915;54.352;9.074;2022-07-18T13:38:57;2.45;;;1.13;;
21507;SDS011;10915;54.352;9.074;2022-07-18T13:41:23;3.28;;;1.23;;
21507;SDS011;10915;54.352;9.074;2022-07-18T13:43:50;3.17;;;1.50;;
21507;SDS011;10915;54.352;9.074;2022-07-18T13:46:15;2.92;;;1.30;;
21507;SDS011;10915;54.352;9.074;2022-07-18T13:48:44;2.58;;;1.17;;
21507;SDS011;10915;54.352;9.074;2022-07-18T13:51:11;4.78;;;1.40;;
21507;SDS011;10915;54.352;9.074;2022-07-18T13:53:37;3.08;;;1.35;;
21507;SDS011;10915;54.352;9.074;2022-07-18T13:56:03;2.92;;;1.60;;
21507;SDS011;10915;54.352;9.074;2022-07-18T13:58:29;2.53;;;1.02;;
21507;SDS011;10915;54.352;9.074;2022-07-18T14:00:54;5.10;;;1.58;;
21507;SDS011;10915;54.352;9.074;2022-07-18T14:03:20;3.10;;;1.30;;
21507;SDS011;10915;54.352;9.074;2022-07-18T14:05:45;1.98;;;1.15;;
21507;SDS011;10915;54.352;9.074;2022-07-18T14:08:11;3.40;;;1.73;;
21507;SDS011;10915;54.352;9.074;2022-07-18T14:10:37;1.50;;;1.20;;
21507;SDS011;10915;54.352;9.074;2022-07-18T14:13:02;6.30;;;1.40;;
21507;SDS011;10915;54.352;9.074;2022-07-18T14:15:28;3.65;;;1.48;;
21507;SDS011;10915;54.352;9.074;2022-07-18T14:17:54;3.83;;;1.00;;
21507;SDS011;10915;54.352;9.074;2022-07-18T14:20:19;4.03;;;1.50;;
21507;SDS011;10915;54.352;9.074;2022-07-18T14:22:48;1.77;;;1.10;;
21507;SDS011;10915;54.352;9.074;2022-07-18T14:25:15;5.53;;;2.13;;
21507;SDS011;10915;54.352;9.074;2022-07-18T14:27:41;3.63;;;1.23;;
21507;SDS011;10915;54.352;9.074;2022-07-18T14:30:09;2.85;;;1.30;;
21507;SDS011;10915;54.352;9.074;2022-07-18T14:32:37;3.15;;;1.67;;
21507;SDS011;10915;54.352;9.074;2022-07-18T14:35:03;4.50;;;1.45;;
21507;SDS011;10915;54.352;9.074;2022-07-18T14:37:29;3.58;;;1.88;;
21507;SDS011;10915;54.352;9.074;2022-07-18T14:39:55;5.60;;;1.83;;
21507;SDS011;10915;54.352;9.074;2022-07-18T14:42:20;3.30;;;1.88;;
21507;SDS011;10915;54.352;9.074;2022-07-18T14:44:46;3.80;;;1.40;;
21507;SDS011;10915;54.352;9.074;2022-07-18T14:47:12;4.05;;;1.85;;
21507;SDS011;10915;54.352;9.074;2022-07-18T14:49:37;4.97;;;1.65;;
21507;SDS011;10915;54.352;9.074;2022-07-18T14:52:03;3.58;;;1.30;;
21507;SDS011;10915;54.352;9.074;2022-07-18T14:54:29;5.63;;;1.80;;
21507;SDS011;10915;54.352;9.074;2022-07-18T14:56:55;3.17;;;1.40;;
21507;SDS011;10915;54.352;9.074;2022-07-18T14:59:21;3.33;;;1.25;;
21507;SDS011;10915;54.352;9.074;2022-07-18T15:01:47;3.80;;;1.30;;
21507;SDS011;10915;54.352;9.074;2022-07-18T15:04:13;5.63;;;1.67;;
21507;SDS011;10915;54.352;9.074;2022-07-18T15:06:40;5.53;;;1.95;;
21507;SDS011;10915;54.352;9.074;2022-07-18T15:09:06;6.80;;;2.08;;
21507;SDS011;10915;54.352;9.074;2022-07-18T15:11:34;3.63;;;2.13;;
21507;SDS011;10915;54.352;9.074;2022-07-18T15:14:00;3.97;;;2.05;;
21507;SDS011;10915;54.352;9.074;2022-07-18T15:16:26;2.15;;;1.40;;
21507;SDS011;10915;54.352;9.074;2022-07-18T15:18:52;3.25;;;1.45;;
21507;SDS011;10915;54.352;9.074;2022-07-18T15:21:17;4.25;;;1.63;;
21507;SDS011;10915;54.352;9.074;2022-07-18T15:23:43;3.25;;;1.65;;
21507;SDS011;10915;54.352;9.074;2022-07-18T15:26:09;4.53;;;1.43;;
21507;SDS011;10915;54.352;9.074;2022-07-18T15:28:34;4.25;;;1.80;;
21507;SDS011;10915;54.352;9.074;2022-07-18T15:31:00;3.80;;;1.75;;
21507;SDS011;10915;54.352;9.074;2022-07-18T15:33:26;5.03;;;1.67;;
21507;SDS011;10915;54.352;9.074;2022-07-18T15:35:51;4.85;;;1.45;;
21507;SDS011;10915;54.352;9.074;2022-07-18T15:38:17;5.93;;;1.80;;
21507;SDS011;10915;54.352;9.074;2022-07-18T15:40:43;5.40;;;1.83;;
21507;SDS011;10915;54.352;9.074;2022-07-18T15:43:08;5.20;;;1.80;;
21507;SDS011;10915;54.352;9.074;2022-07-18T15:45:34;2.63;;;1.77;;
21507;SDS011;10915;54.352;9.074;2022-07-18T15:48:00;5.13;;;1.70;;
21507;SDS011;10915;54.352;9.074;2022-07-18T15:50:26;3.37;;;1.37;;
21507;SDS011;10915;54.352;9.074;2022-07-18T15:52:51;3.10;;;1.30;;
21507;SDS011;10915;54.352;9.074;2022-07-18T15:55:17;4.60;;;1.50;;
21507;SDS011;10915;54.352;9.074;2022-07-18T15:57:43;4.72;;;1.65;;